Time;durP1;ratioP1;P1;durP2;ratioP2;P2;SDS_P1;SDS_P2;PMS_P1;PMS_P2;Temp;Humidity;BMP_temperature;BMP_pressure;BME280_temperature;BME280_humidity;BME280_pressure;Samples;Min_cycle;Max_cycle;Signal;HPM_P1;HPM_P2
2023/09/16 00:01:11;;;;;;;6.63;3.30;;;;;;;19.40;92.14;99585.38;12203811;19;20459;-84
2023/09/16 00:05:13;;;;;;;6.50;3.13;;;;;;;19.43;91.12;99587.53;12204456;19;20010;-85
2023/09/16 00:09:16;;;;;;;3.97;2.90;;;;;;;19.40;91.38;99593.75;12177787;19;20011;-85
2023/09/16 00:13:18;;;;;;;5.03;3.08;;;;;;;19.35;91.38;99593.84;12172427;19;20003;-85
2023/09/16 00:17:21;;;;;;;5.97;3.50;;;;;;;19.29;92.01;99601.53;12184859;19;20015;-85
2023/09/16 00:21:24;;;;;;;4.57;2.92;;;;;;;19.15;93.72;99597.09;12178117;19;20021;-84
2023/09/16 00:25:26;;;;;;;5.20;3.55;;;;;;;18.99;96.17;99591.84;12197385;19;20013;-85
2023/09/16 00:29:28;;;;;;;4.70;3.33;;;;;;;18.86;97.62;99587.09;12198175;19;20006;-84
2023/09/16 00:33:31;;;;;;;8.10;3.72;;;;;;;18.70;98.79;99580.13;12176432;19;20059;-84
2023/09/16 00:37:33;;;;;;;6.65;3.50;;;;;;;18.61;100.00;99589.22;12198528;19;20041;-85
2023/09/16 00:41:39;;;;;;;9.45;3.55;;;;;;;18.50;100.00;99587.78;12195407;19;20019;-85
2023/09/16 00:45:41;;;;;;;8.90;3.88;;;;;;;18.40;100.00;99601.88;12172739;19;20002;-85
2023/09/16 00:49:43;;;;;;;4.63;3.13;;;;;;;18.28;100.00;99590.41;12197479;19;20540;-85
2023/09/16 00:53:47;;;;;;;7.68;5.13;;;;;;;18.16;100.00;99576.94;12199757;19;20504;-83
2023/09/16 00:57:51;;;;;;;5.30;3.60;;;;;;;18.07;100.00;99570.41;12174947;19;20010;-85
2023/09/16 01:01:55;;;;;;;6.38;3.83;;;;;;;17.96;100.00;99566.97;12195757;19;20010;-85
2023/09/16 01:05:59;;;;;;;6.22;3.90;;;;;;;17.85;100.00;99562.72;12198700;19;20007;-85
2023/09/16 01:10:01;;;;;;;5.68;3.35;;;;;;;17.74;100.00;99560.06;12175460;19;20604;-85
2023/09/16 01:14:03;;;;;;;6.63;4.40;;;;;;;17.69;100.00;99568.47;12190239;19;20014;-85
2023/09/16 01:18:23;;;;;;;5.13;3.70;;;;;;;17.61;100.00;99569.19;12168032;19;20011;-85
2023/09/16 01:22:25;;;;;;;5.93;3.72;;;;;;;17.56;100.00;99572.03;12184751;19;20007;-85
2023/09/16 01:26:27;;;;;;;7.65;3.58;;;;;;;17.48;100.00;99567.16;12186186;19;20020;-84
2023/09/16 01:30:35;;;;;;;6.70;4.00;;;;;;;17.44;100.00;99568.91;12165793;19;20017;-84
2023/09/16 01:34:37;;;;;;;9.18;4.40;;;;;;;17.40;100.00;99567.81;12196229;19;20010;-83
2023/09/16 01:38:41;;;;;;;5.35;3.40;;;;;;;17.38;100.00;99567.31;12190524;19;20006;-83
2023/09/16 01:42:43;;;;;;;7.18;3.50;;;;;;;17.39;100.00;99568.97;12165156;19;20018;-83
2023/09/16 01:46:45;;;;;;;5.07;3.42;;;;;;;17.35;100.00;99571.53;12184867;19;20014;-84
2023/09/16 01:50:47;;;;;;;5.95;3.88;;;;;;;17.30;100.00;99564.06;12192394;19;20093;-84
2023/09/16 01:54:50;;;;;;;7.22;4.10;;;;;;;17.25;100.00;99568.88;12164304;19;20007;-84
2023/09/16 01:58:52;;;;;;;9.13;4.22;;;;;;;17.21;100.00;99573.38;12177016;19;20014;-83
2023/09/16 02:02:54;;;;;;;5.63;3.37;;;;;;;17.15;100.00;99569.03;12179223;19;19999;-85
2023/09/16 02:06:56;;;;;;;6.87;4.10;;;;;;;17.12;100.00;99569.63;12159427;19;20007;-84
2023/09/16 02:10:58;;;;;;;8.73;4.70;;;;;;;17.07;100.00;99568.56;12180878;19;20349;-85
2023/09/16 02:15:01;;;;;;;7.82;4.13;;;;;;;17.05;100.00;99564.44;12192279;19;20018;-84
2023/09/16 02:19:04;;;;;;;7.20;3.83;;;;;;;17.03;100.00;99567.50;12173172;19;20035;-85
2023/09/16 02:23:07;;;;;;;7.65;3.95;;;;;;;17.00;100.00;99575.63;12192108;19;20094;-83
2023/09/16 02:27:09;;;;;;;6.50;4.00;;;;;;;16.95;100.00;99581.25;12173529;19;20017;-84
2023/09/16 02:31:11;;;;;;;7.80;4.22;;;;;;;16.90;100.00;99593.28;12184938;19;20705;-83
2023/09/16 02:35:16;;;;;;;6.28;4.10;;;;;;;16.86;100.00;99592.19;12187132;19;20006;-84
2023/09/16 02:39:18;;;;;;;5.95;3.72;;;;;;;16.84;100.00;99591.69;12170073;19;20011;-83
2023/09/16 02:43:20;;;;;;;8.27;4.27;;;;;;;16.79;100.00;99589.78;12187758;19;21237;-82
2023/09/16 02:47:22;;;;;;;7.88;4.05;;;;;;;16.81;100.00;99584.75;12191185;19;20623;-83
2023/09/16 02:51:24;;;;;;;6.53;4.03;;;;;;;16.83;100.00;99595.59;12166614;19;20043;-83
2023/09/16 02:55:27;;;;;;;6.82;4.50;;;;;;;16.85;100.00;99593.34;12190316;19;20007;-85
2023/09/16 02:59:29;;;;;;;8.40;3.72;;;;;;;16.87;100.00;99596.66;12185894;19;20007;-83
2023/09/16 03:03:32;;;;;;;9.02;5.00;;;;;;;16.91;100.00;99585.75;12170716;19;20078;-85
2023/09/16 03:08:17;;;;;;;6.97;3.95;;;;;;;16.95;100.00;99584.84;12192783;19;20010;-83
2023/09/16 03:12:22;;;;;;;11.55;4.32;;;;;;;16.99;100.00;99577.59;12167905;19;20018;-84
2023/09/16 03:16:24;;;;;;;8.75;3.80;;;;;;;17.03;100.00;99581.41;12191572;19;20026;-84
2023/09/16 03:20:29;;;;;;;7.03;3.95;;;;;;;17.06;100.00;99572.47;12185937;19;20010;-84
2023/09/16 03:24:31;;;;;;;8.47;4.10;;;;;;;17.09;100.00;99576.63;12167148;19;21526;-82
2023/09/16 03:28:33;;;;;;;7.60;4.25;;;;;;;17.12;100.00;99576.00;12188883;19;20098;-83
2023/09/16 03:32:39;;;;;;;7.22;3.97;;;;;;;17.10;100.00;99578.25;12191867;19;20087;-83
2023/09/16 03:36:41;;;;;;;7.22;4.10;;;;;;;17.13;100.00;99577.66;12168494;19;20007;-83
2023/09/16 03:40:43;;;;;;;8.40;4.88;;;;;;;17.14;100.00;99573.75;12187397;19;20038;-83
2023/09/16 03:44:45;;;;;;;10.25;4.00;;;;;;;17.15;100.00;99580.16;12191620;19;20027;-82
2023/09/16 03:48:47;;;;;;;9.13;4.15;;;;;;;17.14;100.00;99575.72;12166796;19;20366;-83
2023/09/16 03:52:50;;;;;;;5.85;3.70;;;;;;;17.15;100.00;99572.63;12186286;19;20078;-84
2023/09/16 03:56:52;;;;;;;;;;;;;;;17.11;100.00;99571.59;12182298;19;20046;-83
2023/09/16 04:00:54;;;;;;;6.07;3.70;;;;;;;17.13;100.00;99580.44;12164603;19;21323;-83
2023/09/16 04:04:56;;;;;;;6.68;4.43;;;;;;;17.09;100.00;99576.63;12188714;19;20017;-84
2023/09/16 04:08:58;;;;;;;6.97;4.30;;;;;;;17.08;100.00;99570.22;12182864;19;20006;-82
2023/09/16 04:13:00;;;;;;;6.78;4.25;;;;;;;17.08;100.00;99569.41;12159962;19;20082;-85
2023/09/16 04:17:04;;;;;;;7.28;4.72;;;;;;;17.05;100.00;99565.25;12180224;19;20026;-83
2023/09/16 04:21:06;;;;;;;7.10;4.53;;;;;;;16.98;100.00;99564.78;12158644;19;20418;-83
2023/09/16 04:25:08;;;;;;;6.43;4.38;;;;;;;16.90;100.00;99561.84;12181682;19;20545;-83
2023/09/16 04:29:10;;;;;;;6.20;4.10;;;;;;;16.85;100.00;99560.78;12180065;19;20021;-84
2023/09/16 04:33:13;;;;;;;8.73;5.20;;;;;;;16.82;100.00;99560.53;12164158;19;20006;-84
2023/09/16 04:37:16;;;;;;;10.52;5.18;;;;;;;16.82;100.00;99572.50;12185650;19;20017;-83
2023/09/16 04:41:21;;;;;;;7.50;5.00;;;;;;;16.82;100.00;99558.59;12185187;19;21262;-84
2023/09/16 04:45:27;;;;;;;7.30;4.53;;;;;;;16.84;100.00;99566.66;12163048;19;20006;-85
2023/09/16 04:49:29;;;;;;;8.27;5.03;;;;;;;16.87;100.00;99562.44;12180432;19;20006;-83
2023/09/16 04:53:34;;;;;;;7.83;5.07;;;;;;;16.85;100.00;99563.56;12182130;19;20007;-84
2023/09/16 04:57:36;;;;;;;10.88;5.45;;;;;;;16.85;100.00;99559.94;12158309;19;20034;-84
2023/09/16 05:01:38;;;;;;;14.87;5.23;;;;;;;16.85;100.00;99557.16;12180122;19;20616;-83
2023/09/16 05:05:40;;;;;;;8.20;4.47;;;;;;;16.83;100.00;99553.84;12181494;19;20007;-83
2023/09/16 05:09:43;;;;;;;7.63;4.55;;;;;;;16.82;100.00;99544.66;12158458;19;20027;-83
2023/09/16 05:13:45;;;;;;;8.73;4.30;;;;;;;16.84;100.00;99545.22;12180677;19;20030;-82
2023/09/16 05:17:47;;;;;;;7.60;4.43;;;;;;;16.87;100.00;99548.53;12178070;19;20286;-82
2023/09/16 05:21:49;;;;;;;6.85;4.55;;;;;;;16.87;100.00;99543.78;12152869;19;20011;-82
2023/09/16 05:25:51;;;;;;;8.60;4.90;;;;;;;16.90;100.00;99542.38;12180078;19;20023;-81
2023/09/16 05:29:57;;;;;;;9.98;5.00;;;;;;;16.93;100.00;99547.34;12176027;19;20014;-82
2023/09/16 05:33:59;;;;;;;6.90;4.40;;;;;;;16.97;100.00;99543.66;12157268;19;20010;-82
2023/09/16 05:38:01;;;;;;;8.50;5.38;;;;;;;17.04;100.00;99548.84;12175675;19;20018;-84
2023/09/16 05:42:04;;;;;;;7.93;4.65;;;;;;;17.06;100.00;99547.41;12156083;19;20070;-83
2023/09/16 05:46:06;;;;;;;6.80;4.50;;;;;;;17.11;100.00;99551.28;12180512;19;20034;-85
2023/09/16 05:50:09;;;;;;;9.48;4.88;;;;;;;17.14;100.00;99550.69;12188790;19;20025;-84
2023/09/16 05:54:12;;;;;;;8.43;4.40;;;;;;;17.17;100.00;99545.31;12164427;19;20003;-82
2023/09/16 05:58:14;;;;;;;6.70;4.60;;;;;;;17.22;100.00;99550.84;12174547;19;20015;-81
2023/09/16 06:02:17;;;;;;;8.53;4.60;;;;;;;17.28;100.00;99546.00;12179167;19;20496;-83
2023/09/16 06:06:19;;;;;;;7.20;4.47;;;;;;;17.31;100.00;99554.59;12152403;19;20409;-84
2023/09/16 06:10:22;;;;;;;8.20;4.90;;;;;;;17.32;100.00;99552.63;12194688;19;20614;-84
2023/09/16 06:14:23;;;;;;;8.73;4.72;;;;;;;17.39;100.00;99552.25;12188072;19;20027;-84
2023/09/16 06:18:25;;;;;;;5.75;4.22;;;;;;;17.44;100.00;99552.19;12178466;19;20386;-84
2023/09/16 06:22:27;;;;;;;7.22;5.43;;;;;;;17.46;100.00;99559.13;12201253;19;20708;-82
2023/09/16 06:26:29;;;;;;;7.53;4.00;;;;;;;17.56;100.00;99562.88;12198592;19;20010;-84
2023/09/16 06:30:31;;;;;;;6.57;3.97;;;;;;;17.66;100.00;99568.28;12172610;19;20010;-84
2023/09/16 06:34:33;;;;;;;7.28;4.88;;;;;;;17.74;100.00;99560.06;12195185;19;20252;-84
2023/09/16 06:38:35;;;;;;;6.73;4.53;;;;;;;17.83;100.00;99562.19;12193884;19;20019;-84
2023/09/16 06:42:37;;;;;;;7.88;4.72;;;;;;;17.95;100.00;99570.91;12174745;19;20247;-84
2023/09/16 06:46:45;;;;;;;7.72;4.32;;;;;;;18.06;100.00;99565.97;12203904;19;20007;-84
2023/09/16 06:50:47;;;;;;;7.45;4.85;;;;;;;18.12;100.00;99562.78;12204508;19;20022;-86
2023/09/16 06:54:49;;;;;;;6.63;4.28;;;;;;;18.21;100.00;99562.91;12177751;19;20021;-86
2023/09/16 06:58:51;;;;;;;7.80;5.05;;;;;;;18.32;100.00;99563.53;12196124;19;20719;-85
2023/09/16 07:02:53;;;;;;;5.68;4.38;;;;;;;18.44;100.00;99569.44;12197036;19;20656;-85
2023/09/16 07:06:55;;;;;;;7.78;4.85;;;;;;;18.61;100.00;99566.88;12180696;19;20024;-85
2023/09/16 07:10:57;;;;;;;6.78;4.50;;;;;;;18.82;100.00;99570.13;12215779;19;20003;-84
2023/09/16 07:14:59;;;;;;;10.83;4.77;;;;;;;19.02;100.00;99566.09;12191843;19;20003;-84
2023/09/16 07:19:00;;;;;;;7.13;5.00;;;;;;;19.24;100.00;99573.69;12174069;19;20462;-86
2023/09/16 07:23:02;;;;;;;7.15;5.00;;;;;;;19.49;100.00;99571.47;12194753;19;20493;-83
2023/09/16 07:27:04;;;;;;;6.53;4.40;;;;;;;19.74;100.00;99570.06;12175892;19;20531;-84
2023/09/16 07:31:06;;;;;;;5.72;4.25;;;;;;;19.98;100.00;99576.16;12190553;19;20041;-86
2023/09/16 07:35:08;;;;;;;5.70;4.13;;;;;;;20.23;100.00;99576.69;12204230;19;20023;-85
2023/09/16 07:39:10;;;;;;;6.28;4.60;;;;;;;20.47;100.00;99570.72;12203540;19;20260;-81
2023/09/16 07:43:12;;;;;;;6.78;4.40;;;;;;;20.74;100.00;99569.72;12251028;19;20002;-83
2023/09/16 07:47:14;;;;;;;6.57;4.20;;;;;;;21.00;100.00;99581.00;12253815;19;19999;-82
2023/09/16 07:51:16;;;;;;;7.07;4.53;;;;;;;21.23;100.00;99578.09;12225935;19;19997;-85
2023/09/16 07:55:18;;;;;;;6.87;4.17;;;;;;;21.52;100.00;99577.50;12206659;19;20011;-84
2023/09/16 07:59:21;;;;;;;9.73;5.07;;;;;;;21.74;100.00;99585.75;12190687;19;20049;-84
2023/09/16 08:03:22;;;;;;;6.95;4.82;;;;;;;21.97;100.00;99589.22;12172104;19;20609;-86
2023/09/16 08:07:25;;;;;;;7.03;4.70;;;;;;;22.17;100.00;99598.13;12196488;19;20038;-85
2023/09/16 08:11:27;;;;;;;10.45;4.82;;;;;;;22.38;100.00;99609.50;12193660;19;20124;-86
2023/09/16 08:15:29;;;;;;;6.75;4.70;;;;;;;22.61;100.00;99602.50;12168484;19;20002;-85
2023/09/16 08:19:31;;;;;;;7.13;5.03;;;;;;;22.80;98.05;99604.06;12196101;19;20465;-85
2023/09/16 08:23:33;;;;;;;6.50;5.07;;;;;;;23.03;96.39;99613.94;12191600;19;20062;-86
2023/09/16 08:27:35;;;;;;;6.03;4.20;;;;;;;23.24;95.21;99604.72;12171875;19;20007;-86
2023/09/16 08:31:36;;;;;;;9.10;4.50;;;;;;;23.50;93.50;99616.63;12185897;19;20418;-86
2023/09/16 08:35:38;;;;;;;7.65;4.72;;;;;;;23.70;92.16;99615.00;12189092;19;20038;-88
2023/09/16 08:39:40;;;;;;;10.07;5.27;;;;;;;23.81;91.65;99610.63;12164753;19;20014;-86
2023/09/16 08:43:42;;;;;;;9.57;5.00;;;;;;;23.91;89.83;99619.81;12190899;19;20011;-87
2023/09/16 08:47:48;;;;;;;;;;;;;;;23.93;89.65;99623.94;12189166;19;20623;-86
2023/09/16 08:51:56;;;;;;;7.80;4.35;;;;;;;24.04;88.17;99630.00;12166194;19;20472;-86
2023/09/16 08:55:59;;;;;;;6.70;4.78;;;;;;;24.11;86.69;99636.69;12186350;19;20362;-87
2023/09/16 09:00:03;;;;;;;9.57;4.95;;;;;;;24.29;83.68;99628.09;12181695;19;20006;-88
2023/09/16 09:04:05;;;;;;;6.80;5.13;;;;;;;24.51;83.60;99632.53;12185264;19;20498;-88
2023/09/16 09:08:09;;;;;;;6.38;4.80;;;;;;;24.61;83.32;99637.72;12186257;19;20006;-87
2023/09/16 09:12:10;;;;;;;6.70;5.10;;;;;;;24.60;82.69;99641.72;12168226;19;20015;-86
2023/09/16 09:16:18;;;;;;;7.38;4.78;;;;;;;24.76;81.47;99633.41;12182379;19;20447;-86
2023/09/16 09:20:22;;;;;;;7.03;4.95;;;;;;;24.96;80.30;99632.50;12186882;19;20274;-85
2023/09/16 09:24:24;;;;;;;7.35;4.85;;;;;;;25.14;79.50;99626.69;12163949;19;20019;-87
2023/09/16 09:28:27;;;;;;;6.22;4.78;;;;;;;25.27;79.09;99636.78;12183893;19;20021;-86
2023/09/16 09:32:31;;;;;;;7.43;4.82;;;;;;;25.29;77.32;99627.97;12182430;19;20007;-87
2023/09/16 09:36:55;;;;;;;6.40;4.85;;;;;;;25.40;75.60;99635.63;12161129;19;20009;-85
2023/09/16 09:41:19;;;;;;;7.10;4.90;;;;;;;25.42;76.33;99632.44;12183384;19;20018;-88
2023/09/16 09:45:29;;;;;;;6.70;4.32;;;;;;;25.45;76.43;99631.72;12167739;19;20030;-88
2023/09/16 09:49:47;;;;;;;7.43;5.07;;;;;;;25.62;74.08;99627.81;12199394;19;20007;-87
2023/09/16 09:53:52;;;;;;;7.13;4.95;;;;;;;25.79;74.88;99630.38;12189602;19;20102;-86
2023/09/16 09:57:54;;;;;;;7.97;5.45;;;;;;;26.00;72.99;99629.38;12162030;19;20026;-87
2023/09/16 10:01:56;;;;;;;10.05;5.28;;;;;;;26.28;73.85;99620.94;12185985;19;20469;-88
2023/09/16 10:06:00;;;;;;;7.95;5.10;;;;;;;26.40;72.17;99615.22;12186032;19;20014;-87
2023/09/16 10:10:21;;;;;;;6.40;4.85;;;;;;;26.43;71.65;99608.84;12165147;19;20009;-87
2023/09/16 10:14:24;;;;;;;8.98;5.18;;;;;;;26.63;70.04;99600.53;12185089;19;20046;-87
2023/09/16 10:18:29;;;;;;;7.32;4.85;;;;;;;26.84;66.07;99588.97;12160337;19;20457;-87
2023/09/16 10:22:31;;;;;;;6.30;5.15;;;;;;;26.87;67.46;99599.56;12188072;19;20501;-87
2023/09/16 10:26:33;;;;;;;9.57;5.63;;;;;;;27.03;67.80;99598.34;12185827;19;20477;-87
2023/09/16 10:30:49;;;;;;;8.23;5.65;;;;;;;27.21;66.46;99598.81;12160317;19;20394;-88
2023/09/16 10:35:21;;;;;;;11.68;5.60;;;;;;;27.28;63.98;99603.84;12196483;19;20053;-87
2023/09/16 10:39:24;;;;;;;10.02;5.07;;;;;;;27.31;65.15;99596.59;12177183;19;20012;-85
2023/09/16 10:43:26;;;;;;;9.10;5.43;;;;;;;27.31;64.86;99602.25;12197917;19;20028;-86
2023/09/16 10:47:28;;;;;;;;;;;;;;;27.30;65.32;99601.44;12200839;19;20017;-86
2023/09/16 10:51:36;;;;;;;11.02;5.78;;;;;;;27.67;64.43;99593.44;12171397;19;19931;-86
2023/09/16 10:55:51;;;;;;;7.28;5.65;;;;;;;28.06;61.59;99599.16;12197933;19;20014;-85
2023/09/16 10:59:55;;;;;;;6.70;5.00;;;;;;;28.30;60.82;99595.19;12198953;19;20480;-86
2023/09/16 11:04:06;;;;;;;6.80;4.68;;;;;;;28.49;60.71;99591.50;12177882;19;20031;-85
2023/09/16 11:12:52;;;;;;;6.53;5.00;;;;;;;28.52;61.57;99595.63;12179410;19;20014;-86
2023/09/16 11:17:40;;;;;;;6.15;5.00;;;;;;;28.69;58.70;99575.28;12190702;19;20537;-86
2023/09/16 11:21:43;;;;;;;8.98;5.80;;;;;;;28.68;60.06;99578.50;12195533;19;20496;-83
2023/09/16 11:25:45;;;;;;;6.93;5.25;;;;;;;28.85;60.00;99578.81;12193473;19;20027;-86
2023/09/16 11:29:50;;;;;;;10.63;6.60;;;;;;;29.05;59.63;99585.25;12195174;19;20029;-86
2023/09/16 11:33:59;;;;;;;11.10;6.35;;;;;;;29.25;59.15;99579.50;12177227;19;20003;-86
2023/09/16 11:38:01;;;;;;;10.18;5.85;;;;;;;29.60;57.93;99564.16;12200695;19;20053;-85
2023/09/16 11:42:03;;;;;;;9.88;5.43;;;;;;;30.01;57.09;99562.31;12191901;19;20010;-84
2023/09/16 11:46:12;;;;;;;7.47;5.88;;;;;;;30.64;54.69;99550.03;12241627;19;20013;-85
2023/09/16 11:50:26;;;;;;;9.35;5.28;;;;;;;31.38;51.80;99545.38;12244031;19;19995;-85
2023/09/16 11:54:28;;;;;;;8.30;5.57;;;;;;;32.03;51.71;99546.53;12196925;19;20081;-85
2023/09/16 11:58:29;;;;;;;;;;;;;;;32.57;50.86;99549.56;12200062;19;20374;-85
2023/09/16 12:02:31;;;;;;;8.77;5.65;;;;;;;32.68;47.45;99539.78;12194209;19;19919;-83
2023/09/16 12:06:35;;;;;;;6.28;5.25;;;;;;;33.04;46.28;99534.09;12175026;19;20034;-85
2023/09/16 12:10:37;;;;;;;7.47;5.97;;;;;;;33.29;45.56;99542.66;12189920;19;20018;-84
2023/09/16 12:14:39;;;;;;;6.95;6.00;;;;;;;33.75;44.44;99523.78;12193417;19;20075;-85
2023/09/16 12:18:41;;;;;;;9.02;6.00;;;;;;;34.21;43.79;99522.78;12170406;19;20096;-85
2023/09/16 12:22:45;;;;;;;6.93;6.22;;;;;;;34.50;41.92;99514.78;12191739;19;20006;-85
2023/09/16 12:26:48;;;;;;;7.70;5.57;;;;;;;35.01;41.85;99518.09;12194870;19;20019;-85
2023/09/16 12:30:52;;;;;;;6.93;6.22;;;;;;;35.28;38.47;99503.94;12173955;19;20176;-85
2023/09/16 12:35:23;;;;;;;7.38;6.47;;;;;;;35.08;40.07;99495.16;12196715;19;20006;-85
2023/09/16 12:39:25;;;;;;;6.75;5.13;;;;;;;35.13;40.92;99494.69;12177053;19;20006;-86
2023/09/16 12:43:34;;;;;;;6.80;5.68;;;;;;;35.37;39.64;99485.03;12198949;19;20014;-86
2023/09/16 12:47:36;;;;;;;8.95;5.60;;;;;;;35.78;39.19;99481.25;12200323;19;20002;-86
2023/09/16 12:51:41;;;;;;;7.88;6.03;;;;;;;35.92;38.12;99485.19;12160497;19;20007;-89
2023/09/16 12:55:47;;;;;;;5.95;5.35;;;;;;;36.33;37.64;99484.22;12200371;19;20014;-87
2023/09/16 13:00:09;;;;;;;6.28;5.68;;;;;;;36.76;36.98;99480.69;12198619;19;20010;-87
2023/09/16 13:04:20;;;;;;;6.25;5.07;;;;;;;36.93;36.59;99486.09;12177598;19;20030;-87
2023/09/16 13:08:25;;;;;;;7.18;5.30;;;;;;;36.66;36.68;99473.88;12203083;19;20029;-88
2023/09/16 13:12:30;;;;;;;6.60;5.93;;;;;;;35.39;38.26;99470.25;12178222;19;20071;-87
2023/09/16 13:16:38;;;;;;;5.57;5.00;;;;;;;34.45;39.00;99469.50;12195338;19;20010;-86
2023/09/16 13:20:40;;;;;;;7.25;5.25;;;;;;;33.67;40.20;99473.59;12187101;19;20009;-85
2023/09/16 13:24:45;;;;;;;5.90;4.80;;;;;;;33.08;41.49;99471.31;12167172;19;20003;-85
2023/09/16 13:28:55;;;;;;;6.80;5.15;;;;;;;32.55;42.67;99463.59;12191089;19;20011;-85
2023/09/16 13:32:56;;;;;;;7.32;4.90;;;;;;;32.18;43.28;99474.09;12189691;19;20010;-84
2023/09/16 13:36:58;;;;;;;5.38;4.88;;;;;;;31.98;43.72;99464.31;12171270;19;20006;-84
2023/09/16 13:41:00;;;;;;;6.50;5.10;;;;;;;32.74;42.11;99465.22;12187778;19;20003;-84
2023/09/16 13:45:02;;;;;;;4.97;4.35;;;;;;;33.56;40.53;99459.38;12177670;19;20074;-84
2023/09/16 13:49:04;;;;;;;6.05;4.90;;;;;;;34.55;39.15;99453.50;12190703;19;20007;-85
2023/09/16 13:53:06;;;;;;;8.18;5.50;;;;;;;35.25;38.21;99447.50;12191365;19;20079;-86
2023/09/16 13:57:08;;;;;;;6.88;5.68;;;;;;;34.98;37.81;99455.94;12168760;19;20007;-86
2023/09/16 14:01:10;;;;;;;7.03;5.30;;;;;;;34.01;38.76;99454.63;12213561;19;20013;-86
2023/09/16 14:05:12;;;;;;;7.03;5.30;;;;;;;33.28;39.98;99460.25;12242196;19;19999;-85
2023/09/16 14:09:14;;;;;;;7.35;5.28;;;;;;;32.48;40.86;99458.69;12224921;19;20003;-84
2023/09/16 14:13:15;;;;;;;;;;;;;;;31.70;42.16;99453.59;12253924;19;20002;-83
2023/09/16 14:17:17;;;;;;;6.40;4.53;;;;;;;31.14;44.27;99461.44;12250995;19;19939;-83
2023/09/16 14:21:19;;;;;;;5.53;4.32;;;;;;;30.87;46.48;99458.81;12221114;19;20070;-84
2023/09/16 14:25:22;;;;;;;7.60;4.97;;;;;;;30.65;46.26;99457.81;12252337;19;20006;-84
2023/09/16 14:29:24;;;;;;;6.95;4.75;;;;;;;30.64;46.57;99455.38;12250197;19;20015;-84
2023/09/16 14:33:27;;;;;;;6.03;4.80;;;;;;;30.82;48.08;99450.69;12233835;19;20046;-84
2023/09/16 14:37:29;;;;;;;6.32;4.38;;;;;;;31.10;47.93;99454.91;12248376;19;20010;-84
2023/09/16 14:41:31;;;;;;;6.32;4.50;;;;;;;31.30;47.36;99453.41;12234178;19;20013;-85
2023/09/16 14:45:33;;;;;;;7.40;4.72;;;;;;;31.35;47.39;99451.41;12201111;19;20006;-85
2023/09/16 14:49:34;;;;;;;;;;;;;;;31.17;48.78;99457.78;12229974;19;20007;-84
2023/09/16 14:53:36;;;;;;;8.10;4.82;;;;;;;30.96;47.47;99449.94;12231758;19;19906;-86
2023/09/16 14:57:38;;;;;;;9.20;4.55;;;;;;;30.73;49.75;99453.03;12187701;19;20018;-86
2023/09/16 15:01:41;;;;;;;;;;;;;;;30.40;51.13;99453.94;12204132;19;20010;-86
2023/09/16 15:05:43;;;;;;;6.00;4.50;;;;;;;30.17;51.94;99448.44;12216529;19;19910;-82
2023/09/16 15:09:45;;;;;;;7.15;4.40;;;;;;;29.97;54.18;99448.63;12184407;19;20391;-85
2023/09/16 15:13:47;;;;;;;6.75;4.10;;;;;;;29.83;56.31;99451.31;12204714;19;20014;-84
2023/09/16 15:17:49;;;;;;;7.15;4.80;;;;;;;29.65;56.20;99455.97;12205225;19;20501;-85
2023/09/16 15:21:50;;;;;;;6.70;4.28;;;;;;;29.49;57.81;99456.16;12174028;19;20018;-85
2023/09/16 15:25:52;;;;;;;7.70;4.47;;;;;;;29.19;60.02;99454.16;12206405;19;21452;-85
2023/09/16 15:29:54;;;;;;;5.40;4.32;;;;;;;28.86;62.25;99460.53;12195574;19;20014;-84
2023/09/16 15:33:56;;;;;;;5.63;4.55;;;;;;;28.53;64.57;99464.88;12178625;19;20707;-82
2023/09/16 15:38:02;;;;;;;5.05;4.10;;;;;;;28.21;66.04;99463.47;12199344;19;20018;-84
2023/09/16 15:42:04;;;;;;;9.80;4.65;;;;;;;27.95;67.65;99467.84;12174561;19;20023;-85
2023/09/16 15:46:07;;;;;;;6.00;4.13;;;;;;;27.73;68.09;99461.72;12203739;19;20480;-83
2023/09/16 15:50:10;;;;;;;7.03;4.50;;;;;;;27.61;68.60;99453.41;12194714;19;20362;-85
2023/09/16 15:54:12;;;;;;;6.20;4.25;;;;;;;27.55;68.16;99460.56;12175029;19;20022;-85
2023/09/16 15:58:14;;;;;;;6.07;4.13;;;;;;;27.50;69.46;99463.66;12192294;19;20662;-84
2023/09/16 16:02:16;;;;;;;6.13;4.45;;;;;;;27.45;69.44;99464.78;12194583;19;21170;-81
2023/09/16 16:06:18;;;;;;;8.50;4.30;;;;;;;27.40;70.26;99456.59;12174393;19;20415;-84
2023/09/16 16:10:24;;;;;;;7.60;4.57;;;;;;;27.37;71.48;99468.66;12195882;19;20018;-81
2023/09/16 16:14:26;;;;;;;6.57;4.80;;;;;;;27.29;72.12;99474.53;12192338;19;20026;-81
2023/09/16 16:18:28;;;;;;;8.60;4.38;;;;;;;27.16;72.46;99471.03;12181925;19;20007;-83
2023/09/16 16:22:30;;;;;;;5.75;3.67;;;;;;;27.03;72.81;99465.44;12188246;19;20010;-82
2023/09/16 16:26:32;;;;;;;5.38;3.95;;;;;;;26.96;73.41;99467.31;12198513;19;20017;-82
2023/09/16 16:30:34;;;;;;;5.38;3.85;;;;;;;26.88;74.65;99482.44;12165813;19;20010;-81
2023/09/16 16:34:36;;;;;;;6.18;4.03;;;;;;;26.78;76.10;99479.00;12192738;19;20018;-85
2023/09/16 16:38:37;;;;;;;6.40;4.55;;;;;;;26.74;76.38;99486.59;12191563;19;20013;-83
2023/09/16 16:42:39;;;;;;;6.30;4.40;;;;;;;26.63;76.00;99477.00;12167299;19;20010;-82
2023/09/16 16:46:41;;;;;;;6.57;4.30;;;;;;;26.57;75.60;99484.13;12193817;19;20002;-82
2023/09/16 16:50:43;;;;;;;6.18;4.32;;;;;;;26.53;77.18;99483.22;12189026;19;20347;-83
2023/09/16 16:54:46;;;;;;;5.13;3.75;;;;;;;26.44;78.58;99491.81;12169815;19;20010;-83
2023/09/16 16:58:48;;;;;;;8.40;4.25;;;;;;;26.27;79.18;99481.72;12188389;19;20492;-84
2023/09/16 17:02:50;;;;;;;8.70;5.38;;;;;;;26.11;79.74;99492.16;12192520;19;20438;-84
2023/09/16 17:06:52;;;;;;;5.30;4.00;;;;;;;25.95;80.35;99485.69;12171031;19;20062;-82
2023/09/16 17:10:53;;;;;;;12.90;4.82;;;;;;;25.72;81.09;99480.59;12189156;19;21506;-83
2023/09/16 17:14:55;;;;;;;5.83;4.10;;;;;;;25.57;81.61;99487.00;12192054;19;20121;-83
2023/09/16 17:18:58;;;;;;;10.52;4.72;;;;;;;25.40;83.59;99491.78;12165502;19;20022;-84
2023/09/16 17:23:00;;;;;;;5.63;4.25;;;;;;;25.27;83.60;99490.13;12183402;19;20030;-82
2023/09/16 17:27:02;;;;;;;5.57;4.23;;;;;;;25.14;83.95;99499.81;12182769;19;20027;-83
2023/09/16 17:31:04;;;;;;;7.35;4.13;;;;;;;25.00;84.93;99500.97;12183538;19;20244;-84
2023/09/16 17:35:07;;;;;;;8.35;4.53;;;;;;;24.87;85.88;99495.72;12185473;19;20006;-82
2023/09/16 17:39:09;;;;;;;;;;;;;;;24.75;85.33;99499.34;12161696;19;20075;-81
2023/09/16 17:43:10;;;;;;;6.32;4.72;;;;;;;24.67;85.86;99495.47;12188401;19;19955;-81
2023/09/16 17:47:14;;;;;;;9.45;5.90;;;;;;;24.59;87.61;99495.59;12206358;19;20010;-84
2023/09/16 17:51:16;;;;;;;6.07;3.83;;;;;;;24.47;87.94;99500.03;12173427;19;20014;-82
2023/09/16 17:55:18;;;;;;;9.85;4.93;;;;;;;24.34;88.06;99499.16;12197840;19;20020;-84
2023/09/16 17:59:21;;;;;;;6.10;3.90;;;;;;;24.28;89.18;99508.19;12199925;19;20022;-81
2023/09/16 18:03:23;;;;;;;6.93;4.30;;;;;;;24.16;88.97;99499.72;12208710;19;20030;-79
2023/09/16 18:07:25;;;;;;;8.00;4.15;;;;;;;24.06;88.91;99507.44;12242674;19;20093;-79
2023/09/16 18:11:27;;;;;;;7.47;5.03;;;;;;;23.98;89.58;99504.72;12234586;19;20006;-80
2023/09/16 18:15:29;;;;;;;9.40;5.10;;;;;;;23.88;89.74;99504.00;12193582;19;20014;-80
2023/09/16 18:19:31;;;;;;;9.27;5.63;;;;;;;23.80;90.65;99512.53;12197561;19;20422;-81
2023/09/16 18:23:33;;;;;;;8.17;4.83;;;;;;;23.69;90.69;99511.25;12197507;19;20079;-79
2023/09/16 18:27:35;;;;;;;7.83;5.17;;;;;;;23.57;90.85;99510.03;12172490;19;20251;-83
2023/09/16 18:31:37;;;;;;;7.85;4.65;;;;;;;23.47;90.36;99518.06;12201839;19;20529;-83
2023/09/16 18:35:39;;;;;;;6.18;4.53;;;;;;;23.37;90.57;99522.09;12215835;19;20007;-83
2023/09/16 18:39:40;;;;;;;5.32;3.67;;;;;;;23.36;90.73;99524.09;12191991;19;20009;-83
2023/09/16 18:43:42;;;;;;;6.27;4.30;;;;;;;23.35;90.18;99521.63;12214283;19;19999;-85
2023/09/16 18:47:44;;;;;;;5.70;4.30;;;;;;;23.41;89.92;99523.09;12204040;19;20002;-82
2023/09/16 18:51:46;;;;;;;8.30;4.30;;;;;;;23.41;89.98;99534.34;12174308;19;20007;-83
2023/09/16 18:55:48;;;;;;;6.90;4.30;;;;;;;23.45;89.34;99540.91;12207861;19;20025;-82